TimeEST,TemperatureF,Dew PointF,Humidity,Sea Level PressureIn,VisibilityMPH,Wind Direction,Wind SpeedMPH,Gust SpeedMPH,PrecipitationIn,Events,Conditions,WindDirDegrees,DateUTC
12:15 AM,53.6,50.0,88,30.27,10.0,North,4.6,-,N/A,,Partly Cloudy,350,2013-01-06 05:15:00
12:35 AM,53.6,50.0,88,30.26,10.0,Calm,Calm,-,N/A,,Partly Cloudy,0,2013-01-06 05:35:00
12:55 AM,53.6,50.0,88,30.26,10.0,NNW,3.5,-,N/A,,Clear,340,2013-01-06 05:55:00
1:15 AM,51.8,50.0,94,30.25,10.0,Calm,Calm,-,N/A,,Mostly Cloudy,0,2013-01-06 06:15:00
1:35 AM,53.6,50.0,88,30.23,10.0,Calm,Calm,-,N/A,,Mostly Cloudy,0,2013-01-06 06:35:00
1:55 AM,51.8,50.0,94,30.23,10.0,Calm,Calm,-,N/A,,Clear,0,2013-01-06 06:55:00
2:15 AM,51.8,50.0,94,30.22,10.0,Calm,Calm,-,N/A,,Partly Cloudy,0,2013-01-06 07:15:00
2:35 AM,53.6,50.0,88,30.21,10.0,Calm,Calm,-,N/A,,Mostly Cloudy,0,2013-01-06 07:35:00
2:55 AM,53.6,50.0,88,30.21,10.0,Calm,Calm,-,N/A,,Mostly Cloudy,0,2013-01-06 07:55:00
3:15 AM,53.6,50.0,88,30.20,10.0,Calm,Calm,-,N/A,,Mostly Cloudy,0,2013-01-06 08:15:00
3:35 AM,53.6,50.0,88,30.21,10.0,Calm,Calm,-,N/A,,Mostly Cloudy,0,2013-01-06 08:35:00
3:55 AM,53.6,50.0,88,30.22,10.0,Calm,Calm,-,N/A,,Mostly Cloudy,0,2013-01-06 08:55:00
4:15 AM,53.6,50.0,88,30.19,10.0,Calm,Calm,-,N/A,,Overcast,0,2013-01-06 09:15:00
4:35 AM,53.6,50.0,88,30.19,10.0,Calm,Calm,-,N/A,,Overcast,0,2013-01-06 09:35:00
4:55 AM,53.6,50.0,88,30.19,10.0,Calm,Calm,-,N/A,,Overcast,0,2013-01-06 09:55:00
5:15 AM,53.6,50.0,88,30.18,10.0,Calm,Calm,-,N/A,,Overcast,0,2013-01-06 10:15:00
5:35 AM,53.6,50.0,88,30.18,10.0,Calm,Calm,-,N/A,,Overcast,0,2013-01-06 10:35:00
5:55 AM,53.6,50.0,88,30.18,10.0,Calm,Calm,-,N/A,,Overcast,0,2013-01-06 10:55:00
6:15 AM,53.6,50.0,88,30.18,10.0,Calm,Calm,-,N/A,,Overcast,0,2013-01-06 11:15:00
6:35 AM,53.6,50.0,88,30.16,10.0,Calm,Calm,-,N/A,,Overcast,0,2013-01-06 11:35:00
6:50 AM,55.4,50.0,82,30.18,10.0,NW,5.8,-,N/A,Rain,Light Rain,320,2013-01-06 11:50:00
7:50 AM,55.4,50.0,82,30.20,10.0,NNW,5.8,-,N/A,,Overcast,330,2013-01-06 12:50:00
8:50 AM,55.4,51.8,88,30.21,10.0,NNE,4.6,-,N/A,,Overcast,30,2013-01-06 13:50:00
9:50 AM,57.2,53.6,88,30.21,10.0,NNE,6.9,-,N/A,,Overcast,20,2013-01-06 14:50:00
11:50 AM,59.0,53.6,82,30.19,10.0,NNE,6.9,-,N/A,,Overcast,20,2013-01-06 16:50:00
12:50 PM,57.2,53.6,88,30.17,3.0,NW,6.9,-,N/A,Rain,Light Rain,304,2013-01-06 17:50:00
3:50 PM,55.4,55.4,100,30.14,1.0,Calm,Calm,-,N/A,Rain,Light Rain,0,2013-01-06 20:50:00
4:50 PM,55.4,55.4,100,30.15,3.0,Calm,Calm,-,N/A,Rain,Light Rain,0,2013-01-06 21:50:00
5:50 PM,53.6,53.6,100,30.15,2.0,Calm,Calm,-,N/A,Rain,Light Rain,0,2013-01-06 22:50:00
6:50 PM,55.4,55.4,100,30.17,4.0,North,5.8,-,N/A,Rain,Light Rain,350,2013-01-06 23:50:00
7:50 PM,53.6,53.6,100,30.18,4.0,North,6.9,-,N/A,Rain,Light Rain,350,2013-01-07 00:50:00
8:15 PM,53.6,53.6,100,30.17,5.0,Calm,Calm,-,N/A,Rain,Light Rain,0,2013-01-07 01:15:00
8:35 PM,53.6,53.6,100,30.18,3.0,North,3.5,-,0.02,Rain,Light Rain,10,2013-01-07 01:35:00
8:55 PM,53.6,53.6,100,30.19,2.5,NNW,6.9,-,0.05,Rain,Light Rain,330,2013-01-07 01:55:00
9:15 PM,53.6,53.6,100,30.19,2.5,Calm,Calm,-,N/A,Rain,Light Rain,0,2013-01-07 02:15:00
9:35 PM,53.6,53.6,100,30.19,3.0,NW,6.9,-,0.01,Rain,Light Rain,310,2013-01-07 02:35:00
9:55 PM,53.6,53.6,100,30.19,10.0,NNW,8.1,-,0.01,,Overcast,340,2013-01-07 02:55:00
10:15 PM,53.6,53.6,100,30.20,10.0,NW,8.1,-,N/A,,Mostly Cloudy,320,2013-01-07 03:15:00
10:35 PM,53.6,53.6,100,30.20,10.0,Calm,Calm,-,N/A,,Overcast,0,2013-01-07 03:35:00
10:55 PM,53.6,53.6,100,30.20,10.0,NNW,5.8,-,N/A,,Mostly Cloudy,330,2013-01-07 03:55:00
11:15 PM,53.6,53.6,100,30.20,10.0,North,4.6,-,N/A,,Scattered Clouds,10,2013-01-07 04:15:00
11:35 PM,51.8,50.0,94,30.20,10.0,Calm,Calm,-,N/A,,Scattered Clouds,0,2013-01-07 04:35:00
11:55 PM,51.8,50.0,94,30.21,10.0,SSW,3.5,-,N/A,,Clear,200,2013-01-07 04:55:00